createdAt,value
2023-04-19T00:03:02.479Z,18.4
2023-04-19T00:08:01.414Z,17.3
2023-04-19T00:13:01.456Z,16.0
2023-04-19T00:18:01.537Z,14.7
2023-04-19T00:23:06.410Z,13.9
2023-04-19T00:28:01.299Z,13.8
2023-04-19T00:33:01.559Z,13.4
2023-04-19T00:39:06.346Z,13.2
2023-04-19T00:44:01.270Z,13.4
2023-04-19T00:49:01.383Z,13.2
2023-04-19T00:54:06.290Z,12.9
2023-04-19T00:59:01.434Z,13.6
2023-04-19T01:04:01.824Z,13.7
2023-04-19T01:09:01.839Z,13.2
2023-04-19T01:19:06.570Z,13.4
2023-04-19T01:24:06.378Z,13.1
2023-04-19T01:34:01.288Z,13.4
2023-04-19T01:39:01.570Z,13.8
2023-04-19T01:44:01.390Z,13.0
2023-04-19T01:49:01.279Z,12.6
2023-04-19T01:54:01.348Z,11.9
2023-04-19T01:59:01.499Z,12.0
2023-04-19T02:04:03.441Z,11.7
2023-04-19T02:09:02.088Z,12.2
2023-04-19T02:14:01.962Z,12.2
2023-04-19T02:19:01.804Z,12.8
2023-04-19T02:24:01.430Z,13.2
2023-04-19T02:34:06.430Z,13.6
2023-04-19T02:39:01.368Z,14.1
2023-04-19T02:44:01.426Z,13.6
2023-04-19T02:49:01.520Z,12.8
2023-04-19T02:54:01.636Z,13.3
2023-04-19T02:59:01.441Z,13.1
2023-04-19T03:04:01.739Z,12.6
2023-04-19T03:09:01.953Z,13.5
2023-04-19T03:14:01.622Z,14.4
2023-04-19T03:19:01.554Z,14.2
2023-04-19T03:24:01.529Z,15.0
2023-04-19T03:29:03.831Z,15.8
2023-04-19T03:34:01.473Z,15.6
2023-04-19T03:39:03.285Z,16.0
2023-04-19T03:44:01.607Z,16.6
2023-04-19T03:54:06.386Z,15.7
2023-04-19T03:59:02.749Z,16.2
2023-04-19T04:04:06.220Z,16.4
2023-04-19T04:09:10.111Z,16.6
2023-04-19T04:14:01.618Z,16.0
2023-04-19T04:19:01.824Z,16.4
2023-04-19T04:24:02.050Z,16.2
2023-04-19T04:29:01.292Z,15.9
2023-04-19T04:34:01.479Z,15.8
2023-04-19T04:39:01.375Z,14.7
2023-04-19T04:44:16.821Z,15.5
2023-04-19T04:49:02.434Z,15.6
2023-04-19T04:54:01.421Z,14.8
2023-04-19T04:59:01.346Z,13.9
2023-04-19T05:04:01.743Z,14.0
2023-04-19T05:09:06.627Z,13.1
2023-04-19T05:14:01.342Z,11.8
2023-04-19T05:19:01.662Z,11.8
2023-04-19T05:24:01.566Z,11.5
2023-04-19T05:29:06.448Z,11.1
2023-04-19T05:34:06.453Z,10.8
2023-04-19T05:39:06.414Z,10.5
2023-04-19T05:44:06.323Z,9.7
2023-04-19T05:49:01.496Z,8.8
2023-04-19T05:54:01.306Z,8.5
2023-04-19T05:59:01.460Z,7.2
2023-04-19T06:04:02.655Z,6.8
2023-04-19T06:09:06.390Z,6.3
2023-04-19T06:19:01.498Z,5.7
2023-04-19T06:24:02.709Z,5.5
2023-04-19T06:34:01.573Z,5.7
2023-04-19T06:39:01.578Z,4.8
2023-04-19T06:44:01.754Z,4.6
2023-04-19T06:49:01.352Z,4.8
2023-04-19T06:54:01.437Z,4.6
2023-04-19T06:59:01.774Z,3.6
2023-04-19T07:04:06.765Z,4.2
2023-04-19T07:09:01.280Z,4.4
2023-04-19T07:14:01.831Z,4.0
2023-04-19T07:19:01.422Z,3.8
2023-04-19T07:24:02.813Z,4.2
2023-04-19T07:29:01.982Z,3.6
2023-04-19T07:34:01.524Z,3.5
2023-04-19T07:39:01.533Z,3.1
2023-04-19T07:44:06.871Z,2.5
2023-04-19T07:49:02.115Z,2.4
2023-04-19T07:54:03.356Z,2.9
2023-04-19T07:59:09.930Z,2.8
2023-04-19T08:04:02.668Z,3.4
2023-04-19T08:10:02.862Z,4.2
2023-04-19T08:20:01.971Z,4.3
2023-04-19T08:30:13.038Z,4.3
2023-04-19T08:35:02.507Z,4.4
2023-04-19T08:40:01.376Z,4.4
2023-04-19T08:55:08.012Z,3.5
2023-04-19T09:00:03.321Z,3.3
2023-04-19T09:05:02.252Z,3.9
2023-04-19T09:10:05.900Z,4.7
2023-04-19T09:15:05.817Z,5.1
2023-04-19T09:20:01.409Z,5.8
2023-04-19T09:30:04.755Z,5.3
2023-04-19T09:35:02.681Z,4.9
2023-04-19T09:40:01.388Z,5.1
2023-04-19T09:50:02.673Z,4.8
2023-04-19T10:00:05.046Z,4.8
2023-04-19T10:10:40.209Z,4.6
2023-04-19T10:15:02.200Z,4.2
2023-04-19T10:20:01.887Z,4.2
2023-04-19T10:25:01.342Z,4.3
2023-04-19T10:30:07.808Z,4.3
2023-04-19T10:35:07.142Z,4.6
2023-04-19T10:40:01.367Z,5.2
2023-04-19T10:45:38.268Z,5.2
2023-04-19T10:50:01.496Z,5.2
2023-04-19T10:55:04.420Z,5.4
2023-04-19T11:00:18.057Z,5.1
2023-04-19T11:05:06.971Z,5.2
2023-04-19T11:10:05.418Z,5.2
2023-04-19T11:15:16.833Z,5.6
2023-04-19T11:25:22.606Z,6.0
2023-04-19T11:30:49.119Z,5.6
2023-04-19T11:35:06.345Z,6.2
2023-04-19T11:40:08.438Z,6.2
2023-04-19T11:50:06.612Z,6.2
2023-04-19T11:55:01.258Z,6.8
2023-04-19T12:00:03.965Z,6.8
2023-04-19T12:05:02.064Z,7.0
2023-04-19T12:10:01.414Z,7.3
2023-04-19T12:15:02.055Z,7.1
2023-04-19T12:25:01.303Z,7.3
2023-04-19T12:30:02.237Z,7.3
2023-04-19T12:35:01.273Z,7.7
2023-04-19T12:40:01.265Z,8.0
2023-04-19T12:45:01.763Z,8.2
2023-04-19T12:50:02.252Z,7.6
2023-04-19T12:55:01.396Z,7.9
2023-04-19T13:00:01.269Z,7.6
2023-04-19T13:05:02.017Z,7.8
2023-04-19T13:10:01.501Z,7.9
2023-04-19T13:15:06.439Z,8.3
2023-04-19T13:20:01.406Z,8.4
2023-04-19T13:25:01.261Z,8.8
2023-04-19T13:30:02.523Z,8.9
2023-04-19T13:35:02.053Z,8.9
2023-04-19T13:45:01.991Z,8.5
2023-04-19T13:50:02.113Z,8.2
2023-04-19T13:55:01.335Z,8.6
2023-04-19T14:00:01.797Z,9.4
2023-04-19T14:05:01.336Z,11.9
2023-04-19T14:10:02.122Z,13.2
2023-04-19T14:15:02.168Z,13.8
2023-04-19T14:20:06.442Z,13.8
2023-04-19T14:25:02.927Z,13.3
2023-04-19T14:30:02.173Z,11.2
2023-04-19T14:35:02.024Z,10.6
2023-04-19T14:40:01.501Z,10.1
2023-04-19T14:45:01.690Z,10.4
2023-04-19T14:50:01.589Z,10.3
2023-04-19T14:55:01.426Z,10.2
2023-04-19T15:00:02.725Z,10.2
2023-04-19T15:05:03.983Z,10.5
2023-04-19T15:10:05.284Z,9.2
2023-04-19T15:15:01.653Z,9.2
2023-04-19T15:35:02.247Z,9.0
2023-04-19T15:41:01.482Z,10.2
2023-04-19T15:46:01.352Z,11.1
2023-04-19T15:51:02.178Z,10.6
2023-04-19T15:56:01.268Z,10.4
